createdAt,value
2018-04-08T00:01:04.919Z,9.19
2018-04-08T00:03:33.528Z,9.15
2018-04-08T00:06:02.198Z,9.08
2018-04-08T00:08:30.944Z,8.99
2018-04-08T00:10:59.577Z,8.88
2018-04-08T00:13:28.214Z,8.79
2018-04-08T00:15:56.946Z,8.75
2018-04-08T00:18:26.376Z,8.78
2018-04-08T00:20:55.057Z,8.80
2018-04-08T00:23:25.377Z,8.80
2018-04-08T00:25:54.340Z,8.79
2018-04-08T00:28:23.054Z,8.83
2018-04-08T00:30:51.594Z,8.85
2018-04-08T00:33:20.207Z,8.83
2018-04-08T00:35:48.890Z,8.77
2018-04-08T00:38:17.585Z,8.77
2018-04-08T00:40:46.224Z,8.80
2018-04-08T00:43:14.842Z,8.80
2018-04-08T00:45:43.458Z,8.77
2018-04-08T00:48:12.035Z,8.82
2018-04-08T00:50:40.596Z,8.77
2018-04-08T00:53:09.226Z,8.76
2018-04-08T00:55:38.044Z,8.75
2018-04-08T00:58:07.173Z,8.72
2018-04-08T01:00:36.752Z,8.69
2018-04-08T01:03:06.151Z,8.60
2018-04-08T01:05:35.350Z,8.53
2018-04-08T01:08:03.960Z,8.55
2018-04-08T01:10:32.610Z,8.58
2018-04-08T01:13:01.211Z,8.57
2018-04-08T01:15:29.822Z,8.53
2018-04-08T01:17:59.363Z,8.44
2018-04-08T01:20:27.994Z,8.41
2018-04-08T01:22:56.644Z,8.38
2018-04-08T01:25:26.426Z,8.37
2018-04-08T01:27:55.750Z,8.37
2018-04-08T01:30:24.788Z,8.31
2018-04-08T01:32:53.415Z,8.26
2018-04-08T01:35:22.777Z,8.24
2018-04-08T01:37:51.461Z,8.28
2018-04-08T01:40:20.061Z,8.35
2018-04-08T01:42:48.704Z,8.48
2018-04-08T01:45:17.385Z,8.58
2018-04-08T01:47:46.017Z,8.72
2018-04-08T01:50:14.691Z,8.76
2018-04-08T01:52:44.081Z,8.77
2018-04-08T01:55:12.579Z,8.64
2018-04-08T01:57:42.272Z,8.53
2018-04-08T02:00:11.616Z,8.42
2018-04-08T02:02:40.585Z,8.28
2018-04-08T02:05:09.189Z,8.17
2018-04-08T02:07:38.674Z,8.09
2018-04-08T02:10:07.473Z,8.01
2018-04-08T02:12:36.065Z,7.96
2018-04-08T02:15:04.672Z,7.90
2018-04-08T02:17:33.293Z,7.85
2018-04-08T02:20:01.906Z,7.87
2018-04-08T02:22:30.554Z,7.96
2018-04-08T02:24:59.905Z,7.95
2018-04-08T02:27:28.605Z,7.93
2018-04-08T02:29:57.307Z,7.90
2018-04-08T02:32:26.422Z,7.86
2018-04-08T02:34:55.419Z,7.85
2018-04-08T02:37:24.773Z,7.91
2018-04-08T02:39:53.358Z,8.14
2018-04-08T02:42:21.981Z,8.20
2018-04-08T02:44:50.554Z,8.33
2018-04-08T02:47:19.867Z,8.33
2018-04-08T02:49:48.416Z,8.33
2018-04-08T02:52:17.104Z,8.36
2018-04-08T02:54:45.902Z,8.31
2018-04-08T02:57:14.746Z,8.17
2018-04-08T02:59:43.314Z,8.04
2018-04-08T03:02:12.499Z,7.99
2018-04-08T03:04:41.780Z,7.87
2018-04-08T03:07:10.456Z,7.68
2018-04-08T03:09:39.827Z,7.54
2018-04-08T03:12:08.357Z,7.42
2018-04-08T03:14:36.916Z,7.33
2018-04-08T03:17:05.608Z,7.29
2018-04-08T03:19:34.220Z,7.33
2018-04-08T03:22:02.810Z,7.34
2018-04-08T03:24:32.291Z,7.49
2018-04-08T03:27:00.865Z,7.48
2018-04-08T03:29:29.588Z,7.39
2018-04-08T03:31:58.317Z,7.26
2018-04-08T03:34:27.400Z,7.19
2018-04-08T03:36:56.943Z,7.16
2018-04-08T03:39:25.780Z,7.13
2018-04-08T03:41:54.428Z,7.17
2018-04-08T03:44:22.974Z,7.22
2018-04-08T03:46:51.698Z,7.29
2018-04-08T03:49:20.230Z,7.39
2018-04-08T03:51:48.871Z,7.52
2018-04-08T03:54:17.614Z,7.54
2018-04-08T03:56:46.286Z,7.50
2018-04-08T03:59:14.934Z,7.53
2018-04-08T04:01:43.617Z,7.44
2018-04-08T04:04:12.120Z,7.33
2018-04-08T04:06:40.846Z,7.27
2018-04-08T04:09:09.794Z,7.24
2018-04-08T04:11:39.944Z,7.23
2018-04-08T04:14:08.580Z,7.26
2018-04-08T04:16:37.148Z,7.32
2018-04-08T04:19:24.347Z,7.36
2018-04-08T04:22:10.681Z,7.41
2018-04-08T04:28:06.211Z,7.92
2018-04-08T04:30:34.836Z,8.08
2018-04-08T04:33:03.523Z,8.05
2018-04-08T04:35:32.158Z,8.05
2018-04-08T04:38:00.740Z,8.02
2018-04-08T04:40:30.157Z,7.95
2018-04-08T04:42:58.908Z,7.98
2018-04-08T04:45:27.517Z,7.94
2018-04-08T04:47:56.101Z,7.84
2018-04-08T04:50:24.697Z,7.76
2018-04-08T04:52:54.297Z,7.74
2018-04-08T04:55:23.201Z,7.65
2018-04-08T04:57:52.113Z,7.62
2018-04-08T05:00:20.868Z,7.58
2018-04-08T05:02:49.578Z,7.58
2018-04-08T05:05:18.123Z,7.60
2018-04-08T05:07:47.537Z,7.63
2018-04-08T05:10:16.802Z,7.68
2018-04-08T05:12:45.398Z,7.68
2018-04-08T05:15:14.147Z,7.75
2018-04-08T05:17:42.771Z,7.73
2018-04-08T05:20:12.315Z,7.73
2018-04-08T05:22:40.937Z,7.84
2018-04-08T05:25:09.590Z,7.98
2018-04-08T05:27:39.107Z,8.12
2018-04-08T05:30:08.294Z,8.20
2018-04-08T05:32:36.868Z,8.28
2018-04-08T05:35:06.187Z,8.30
2018-04-08T05:37:34.830Z,8.41
2018-04-08T05:40:03.582Z,8.54
2018-04-08T05:42:32.909Z,8.58
2018-04-08T05:45:01.709Z,8.71
2018-04-08T05:47:30.326Z,8.92
2018-04-08T05:50:00.075Z,9.17
2018-04-08T05:52:29.533Z,8.97
2018-04-08T05:54:58.092Z,9.78
2018-04-08T05:57:26.939Z,10.35
2018-04-08T05:59:56.263Z,11.51
2018-04-08T06:02:25.283Z,12.47
2018-04-08T06:04:53.947Z,13.10
2018-04-08T06:07:23.374Z,13.22
2018-04-08T06:09:52.942Z,13.60
2018-04-08T06:12:21.591Z,14.12
2018-04-08T06:14:50.358Z,14.57
2018-04-08T06:17:19.222Z,14.55
2018-04-08T06:19:48.602Z,15.46
2018-04-08T06:22:17.139Z,15.97
2018-04-08T06:24:45.886Z,15.59
2018-04-08T06:27:14.552Z,14.81
2018-04-08T06:29:43.166Z,14.74
2018-04-08T06:32:11.742Z,15.17
2018-04-08T06:34:40.433Z,15.94
2018-04-08T06:37:09.184Z,16.57
2018-04-08T06:39:38.609Z,16.54
2018-04-08T06:42:07.330Z,16.51
2018-04-08T06:44:36.868Z,17.37
2018-04-08T06:47:06.639Z,18.12
2018-04-08T06:49:36.195Z,18.53
2018-04-08T06:52:06.958Z,18.40
2018-04-08T06:54:36.994Z,18.98
2018-04-08T06:57:06.394Z,19.26
2018-04-08T06:59:35.789Z,19.19
2018-04-08T07:02:04.405Z,18.97
2018-04-08T07:04:33.879Z,18.62
2018-04-08T07:07:03.381Z,19.24
2018-04-08T07:09:31.920Z,19.07
2018-04-08T07:12:01.381Z,19.03
2018-04-08T07:14:30.361Z,19.66
2018-04-08T07:16:59.779Z,20.05
2018-04-08T07:19:29.318Z,20.52
2018-04-08T07:21:58.012Z,20.84
2018-04-08T07:24:27.445Z,20.78
2018-04-08T07:26:56.239Z,21.43
2018-04-08T07:29:26.721Z,21.93
2018-04-08T07:31:55.485Z,22.56
2018-04-08T07:34:24.973Z,22.68
2018-04-08T07:36:53.641Z,22.84
2018-04-08T07:39:22.344Z,22.96
2018-04-08T07:41:51.728Z,23.35
2018-04-08T07:44:21.240Z,23.73
2018-04-08T07:46:50.781Z,23.87
2018-04-08T07:49:19.919Z,24.10
2018-04-08T07:51:49.208Z,24.67
2018-04-08T07:54:17.948Z,24.85
2018-04-08T07:56:47.051Z,25.00
2018-04-08T07:59:15.827Z,25.19
2018-04-08T08:01:44.461Z,25.52
2018-04-08T08:04:13.150Z,25.67
2018-04-08T08:06:41.817Z,26.17
2018-04-08T08:09:10.529Z,26.16
2018-04-08T08:11:39.102Z,26.48
2018-04-08T08:14:07.653Z,26.42
2018-04-08T08:16:36.852Z,26.97
2018-04-08T08:19:06.186Z,27.00
2018-04-08T08:21:34.863Z,27.30
2018-04-08T08:24:04.411Z,27.36
2018-04-08T08:26:33.080Z,27.80
2018-04-08T08:29:02.617Z,27.71
2018-04-08T08:31:31.276Z,27.97
2018-04-08T08:33:59.831Z,27.82
2018-04-08T08:36:29.197Z,28.17
2018-04-08T08:38:57.835Z,28.72
2018-04-08T08:41:26.384Z,27.55
2018-04-08T08:43:55.786Z,27.16
2018-04-08T08:46:26.919Z,26.86
2018-04-08T08:48:56.074Z,27.66
2018-04-08T08:51:25.501Z,27.90
2018-04-08T08:53:54.363Z,28.03
2018-04-08T08:56:23.142Z,28.16
2018-04-08T08:58:52.056Z,28.03
2018-04-08T09:01:20.863Z,28.48
2018-04-08T09:03:49.784Z,26.69
2018-04-08T09:06:18.854Z,25.76
2018-04-08T09:08:48.647Z,25.06
2018-04-08T09:11:17.480Z,24.83
2018-04-08T09:13:46.443Z,24.88
2018-04-08T09:16:16.498Z,23.98
2018-04-08T09:18:47.870Z,23.53
2018-04-08T09:21:28.403Z,24.59
2018-04-08T09:23:57.867Z,25.29
2018-04-08T09:26:26.905Z,23.23
2018-04-08T09:28:56.397Z,23.28
2018-04-08T09:31:26.424Z,23.11
2018-04-08T09:33:56.464Z,23.17
2018-04-08T09:36:25.460Z,22.97
2018-04-08T09:38:55.407Z,23.51
2018-04-08T09:41:25.377Z,24.37
2018-04-08T09:43:54.175Z,26.40
2018-04-08T09:46:22.874Z,26.03
2018-04-08T09:48:51.667Z,24.62
2018-04-08T09:51:20.483Z,25.71
2018-04-08T09:53:49.186Z,24.40
2018-04-08T09:56:18.014Z,23.40
2018-04-08T09:58:49.860Z,22.89
2018-04-08T10:01:25.171Z,22.68
2018-04-08T10:03:55.444Z,21.88
2018-04-08T10:06:25.055Z,22.35
2018-04-08T10:08:53.842Z,24.32
2018-04-08T10:11:22.621Z,24.50
2018-04-08T10:13:51.649Z,26.45
2018-04-08T10:16:20.407Z,24.34
2018-04-08T10:18:50.002Z,22.41
2018-04-08T10:21:18.735Z,22.89
2018-04-08T10:23:47.505Z,24.54
2018-04-08T10:26:16.856Z,23.87
2018-04-08T10:28:46.887Z,23.96
2018-04-08T10:31:15.508Z,23.33
2018-04-08T10:33:44.178Z,23.51
2018-04-08T10:36:12.878Z,24.59
2018-04-08T10:38:41.572Z,24.98
2018-04-08T10:41:10.410Z,24.76
2018-04-08T10:43:39.089Z,25.31
2018-04-08T10:46:07.693Z,24.34
2018-04-08T10:48:36.316Z,23.65
2018-04-08T10:51:04.961Z,23.29
2018-04-08T10:53:33.581Z,22.18
2018-04-08T10:56:02.292Z,22.56
2018-04-08T10:58:31.394Z,22.84
2018-04-08T11:01:00.624Z,23.07
2018-04-08T11:03:29.460Z,24.11
2018-04-08T11:05:59.219Z,23.93
2018-04-08T11:08:27.870Z,25.83
2018-04-08T11:10:56.539Z,26.36
2018-04-08T11:13:25.970Z,26.53
2018-04-08T11:15:55.628Z,25.15
2018-04-08T11:18:25.335Z,26.46
2018-04-08T11:20:54.036Z,26.12
2018-04-08T11:23:22.741Z,26.26
2018-04-08T11:25:52.672Z,25.92
2018-04-08T11:28:22.024Z,24.40
2018-04-08T11:30:50.950Z,23.14
2018-04-08T11:33:19.562Z,23.91
2018-04-08T11:35:48.281Z,25.43
2018-04-08T11:38:17.703Z,27.10
2018-04-08T11:40:47.070Z,26.44
2018-04-08T11:43:15.842Z,26.62
2018-04-08T11:45:46.158Z,26.21
2018-04-08T11:48:14.769Z,27.84
2018-04-08T11:50:43.401Z,29.04
2018-04-08T11:53:12.177Z,29.54
2018-04-08T11:55:40.974Z,29.97
2018-04-08T11:58:10.240Z,29.20
2018-04-08T12:00:40.624Z,29.21
2018-04-08T12:03:09.603Z,25.45
2018-04-08T12:05:38.446Z,26.24
2018-04-08T12:08:07.013Z,27.81
2018-04-08T12:10:36.646Z,28.74
2018-04-08T12:13:05.380Z,29.14
2018-04-08T12:15:34.029Z,30.03
2018-04-08T12:18:03.922Z,28.35
2018-04-08T12:20:32.553Z,26.32
2018-04-08T12:23:01.481Z,27.83
2018-04-08T12:25:31.080Z,28.93
2018-04-08T12:28:00.274Z,29.07
2018-04-08T12:30:29.845Z,28.85
2018-04-08T12:32:58.992Z,27.39
2018-04-08T12:35:27.873Z,26.58
2018-04-08T12:37:56.504Z,27.37
2018-04-08T12:40:26.815Z,27.16
2018-04-08T12:42:55.785Z,28.44
2018-04-08T12:45:24.636Z,29.43
2018-04-08T12:47:53.398Z,26.87
2018-04-08T12:50:22.266Z,26.38
2018-04-08T12:52:51.144Z,25.09
2018-04-08T12:55:19.824Z,26.97
2018-04-08T12:57:48.954Z,27.81
2018-04-08T13:00:18.203Z,27.06
2018-04-08T13:02:47.497Z,27.77
2018-04-08T13:05:16.535Z,27.07
2018-04-08T13:07:45.287Z,26.69
2018-04-08T13:10:14.042Z,26.28
2018-04-08T13:12:44.120Z,25.83
2018-04-08T13:15:12.849Z,27.01
2018-04-08T13:17:42.161Z,28.00
2018-04-08T13:20:10.962Z,28.95
2018-04-08T13:22:39.655Z,29.36
2018-04-08T13:25:08.426Z,29.06
2018-04-08T13:27:37.155Z,29.64
2018-04-08T13:30:06.364Z,30.13
2018-04-08T13:32:35.409Z,30.73
2018-04-08T13:35:04.159Z,30.51
2018-04-08T13:37:33.572Z,30.43
2018-04-08T13:40:02.234Z,29.98
2018-04-08T13:42:30.849Z,28.45
2018-04-08T13:44:59.682Z,27.07
2018-04-08T13:47:28.340Z,27.01
2018-04-08T13:49:57.047Z,27.70
2018-04-08T13:52:25.760Z,27.19
2018-04-08T13:54:54.526Z,28.16
2018-04-08T13:57:23.947Z,28.76
2018-04-08T13:59:54.669Z,29.26
2018-04-08T14:02:23.561Z,29.38
2018-04-08T14:04:52.547Z,29.24
2018-04-08T14:07:21.158Z,29.17
2018-04-08T14:09:49.862Z,29.40
2018-04-08T14:12:19.298Z,29.33
2018-04-08T14:14:48.000Z,29.03
2018-04-08T14:17:17.632Z,28.37
2018-04-08T14:19:46.291Z,27.99
2018-04-08T14:22:14.924Z,27.82
2018-04-08T14:24:44.360Z,27.58
2018-04-08T14:27:13.695Z,27.37
2018-04-08T14:29:42.425Z,27.58
2018-04-08T14:32:11.460Z,27.31
2018-04-08T14:34:40.760Z,27.81
2018-04-08T14:37:09.736Z,28.12
2018-04-08T14:39:38.285Z,28.37
2018-04-08T14:42:07.010Z,28.49
2018-04-08T14:44:35.655Z,28.45
2018-04-08T14:47:05.216Z,28.28
2018-04-08T14:49:34.986Z,28.52
2018-04-08T14:52:03.620Z,27.97
2018-04-08T14:54:32.982Z,27.77
2018-04-08T14:57:01.894Z,27.25
2018-04-08T14:59:30.760Z,25.95
2018-04-08T15:02:00.626Z,25.61
2018-04-08T15:04:29.924Z,25.93
2018-04-08T15:06:58.892Z,26.41
2018-04-08T15:09:27.799Z,26.35
2018-04-08T15:11:56.787Z,26.23
2018-04-08T15:14:25.908Z,25.88
2018-04-08T15:16:55.306Z,25.49
2018-04-08T15:19:24.254Z,24.89
2018-04-08T15:21:53.338Z,24.83
2018-04-08T15:24:22.576Z,24.75
2018-04-08T15:26:51.518Z,24.85
2018-04-08T15:29:20.478Z,24.98
2018-04-08T15:31:50.381Z,25.07
2018-04-08T15:34:21.071Z,25.10
2018-04-08T15:36:50.174Z,25.10
2018-04-08T15:39:19.160Z,25.24
2018-04-08T15:41:48.158Z,25.42
2018-04-08T15:44:17.320Z,25.93
2018-04-08T15:46:46.668Z,26.34
2018-04-08T15:49:16.383Z,26.65
2018-04-08T15:51:45.477Z,26.80
2018-04-08T15:54:15.301Z,26.92
2018-04-08T15:56:45.417Z,26.75
2018-04-08T15:59:15.054Z,26.70
2018-04-08T16:01:44.425Z,26.47
2018-04-08T16:04:13.593Z,26.20
2018-04-08T16:06:43.237Z,26.04
2018-04-08T16:09:13.370Z,25.85
2018-04-08T16:11:42.402Z,25.80
2018-04-08T16:14:12.281Z,25.68
2018-04-08T16:16:41.709Z,25.57
2018-04-08T16:19:10.841Z,25.36
2018-04-08T16:21:39.975Z,25.10
2018-04-08T16:24:09.500Z,24.89
2018-04-08T16:26:40.256Z,24.62
2018-04-08T16:29:09.469Z,24.38
2018-04-08T16:31:38.731Z,24.17
2018-04-08T16:34:08.181Z,23.96
2018-04-08T16:36:37.246Z,23.88
2018-04-08T16:39:06.546Z,23.81
2018-04-08T16:41:35.991Z,23.68
2018-04-08T16:44:05.045Z,23.53
2018-04-08T16:46:34.206Z,23.35
2018-04-08T16:49:03.552Z,23.13
2018-04-08T16:51:32.963Z,22.92
2018-04-08T16:54:03.733Z,22.75
2018-04-08T16:56:33.396Z,22.60
2018-04-08T16:59:02.566Z,22.48
2018-04-08T17:01:32.496Z,22.37
2018-04-08T17:04:01.541Z,22.28
2018-04-08T17:06:30.623Z,22.21
2018-04-08T17:08:59.847Z,22.19
2018-04-08T17:11:28.981Z,22.10
2018-04-08T17:13:58.794Z,22.00
2018-04-08T17:16:27.985Z,21.88
2018-04-08T17:18:58.942Z,21.84
2018-04-08T17:21:28.761Z,21.54
2018-04-08T17:23:57.834Z,21.36
2018-04-08T17:26:26.831Z,20.85
2018-04-08T17:28:56.097Z,20.72
2018-04-08T17:31:25.616Z,20.61
2018-04-08T17:33:54.726Z,20.49
2018-04-08T17:36:23.729Z,20.36
2018-04-08T17:38:54.679Z,20.25
2018-04-08T17:41:24.550Z,20.18
2018-04-08T17:43:54.336Z,20.13
2018-04-08T17:46:24.996Z,20.05
2018-04-08T17:48:54.090Z,19.95
2018-04-08T17:51:23.072Z,19.85
2018-04-08T17:53:53.365Z,19.79
2018-04-08T17:56:22.340Z,19.60
2018-04-08T17:58:51.615Z,19.55
2018-04-08T18:01:21.422Z,19.51
2018-04-08T18:03:50.503Z,19.42
2018-04-08T18:06:19.799Z,19.33
2018-04-08T18:08:48.915Z,19.23
2018-04-08T18:11:19.226Z,19.09
2018-04-08T18:13:49.983Z,19.04
2018-04-08T18:16:20.153Z,18.91
2018-04-08T18:18:49.157Z,18.82
2018-04-08T18:21:20.018Z,18.75
2018-04-08T18:23:50.113Z,18.67
2018-04-08T18:26:19.340Z,18.53
2018-04-08T18:28:48.401Z,18.43
2018-04-08T18:31:17.644Z,18.37
2018-04-08T18:33:47.101Z,18.24
2018-04-08T18:36:17.068Z,18.16
2018-04-08T18:38:46.683Z,18.05
2018-04-08T18:41:17.230Z,17.98
2018-04-08T18:43:48.076Z,17.87
2018-04-08T18:46:17.346Z,17.67
2018-04-08T18:48:46.836Z,17.43
2018-04-08T18:51:17.095Z,17.27
2018-04-08T18:53:46.142Z,17.15
2018-04-08T18:56:15.875Z,17.03
2018-04-08T18:58:45.456Z,16.89
2018-04-08T19:01:14.928Z,16.85
2018-04-08T19:03:45.476Z,16.80
2018-04-08T19:06:14.764Z,16.74
2018-04-08T19:08:43.831Z,16.69
2018-04-08T19:11:12.961Z,16.66
2018-04-08T19:13:42.761Z,16.59
2018-04-08T19:16:11.996Z,16.53
2018-04-08T19:18:44.709Z,16.56
2018-04-08T19:21:13.792Z,16.56
2018-04-08T19:23:44.167Z,16.39
2018-04-08T19:26:14.058Z,16.30
2018-04-08T19:28:44.389Z,16.17
2018-04-08T19:31:13.568Z,16.00
2018-04-08T19:33:42.554Z,15.85
2018-04-08T19:36:11.680Z,15.73
2018-04-08T19:38:40.988Z,15.66
2018-04-08T19:41:10.593Z,15.63
2018-04-08T19:43:39.663Z,15.65
2018-04-08T19:46:21.722Z,15.63
2018-04-08T19:49:03.623Z,15.63
2018-04-08T19:51:33.437Z,15.63
2018-04-08T19:54:03.026Z,15.62
2018-04-08T19:56:34.007Z,15.66
2018-04-08T19:59:04.633Z,15.64
2018-04-08T20:01:35.103Z,15.68
2018-04-08T20:04:04.269Z,15.69
2018-04-08T20:06:34.772Z,15.73
2018-04-08T20:09:05.515Z,15.82
2018-04-08T20:11:35.305Z,15.83
2018-04-08T20:14:05.790Z,15.87
2018-04-08T20:16:35.691Z,15.95
2018-04-08T20:19:05.448Z,16.05
2018-04-08T20:21:34.835Z,16.06
2018-04-08T20:24:04.853Z,16.04
2018-04-08T20:26:34.456Z,15.95
2018-04-08T20:29:05.004Z,15.85
2018-04-08T20:31:34.126Z,15.82
2018-04-08T20:34:03.835Z,15.84
2018-04-08T20:36:32.845Z,15.86
2018-04-08T20:39:02.625Z,15.94
2018-04-08T20:41:31.703Z,15.97
2018-04-08T20:44:02.543Z,15.98
2018-04-08T20:46:31.631Z,15.94
2018-04-08T20:49:02.140Z,15.84
2018-04-08T20:51:33.203Z,15.74
2018-04-08T20:54:02.508Z,15.66
2018-04-08T20:56:31.594Z,15.59
2018-04-08T20:59:00.610Z,15.51
2018-04-08T21:01:31.030Z,15.48
2018-04-08T21:04:00.791Z,15.43
2018-04-08T21:06:29.857Z,15.38
2018-04-08T21:08:58.806Z,15.36
2018-04-08T21:11:27.868Z,15.32
2018-04-08T21:13:58.053Z,15.30
2018-04-08T21:16:27.421Z,15.21
2018-04-08T21:18:57.192Z,15.11
2018-04-08T21:21:26.063Z,15.03
2018-04-08T21:23:55.718Z,14.97
2018-04-08T21:26:24.737Z,14.96
2018-04-08T21:28:53.837Z,14.91
2018-04-08T21:31:22.809Z,15.00
2018-04-08T21:33:51.806Z,15.10
2018-04-08T21:36:21.846Z,15.20
2018-04-08T21:38:50.817Z,15.27
2018-04-08T21:41:20.542Z,15.33
2018-04-08T21:43:50.237Z,15.45
2018-04-08T21:46:19.597Z,15.56
2018-04-08T21:48:48.750Z,15.64
2018-04-08T21:51:17.961Z,15.28
2018-04-08T21:53:46.771Z,14.45
2018-04-08T21:56:15.539Z,14.49
2018-04-08T21:58:45.023Z,14.64
2018-04-08T22:01:15.886Z,14.79
2018-04-08T22:03:44.631Z,14.93
2018-04-08T22:06:14.107Z,15.03
2018-04-08T22:08:44.052Z,15.09
2018-04-08T22:11:13.335Z,15.17
2018-04-08T22:13:42.775Z,15.19
2018-04-08T22:16:11.737Z,15.22
2018-04-08T22:18:40.456Z,15.25
2018-04-08T22:21:09.866Z,15.24
2018-04-08T22:23:38.527Z,15.22
2018-04-08T22:26:07.751Z,14.97
2018-04-08T22:28:36.559Z,14.73
2018-04-08T22:31:05.305Z,14.69
2018-04-08T22:33:33.944Z,14.67
2018-04-08T22:36:03.367Z,14.70
2018-04-08T22:38:32.899Z,14.75
2018-04-08T22:41:01.775Z,14.86
2018-04-08T22:43:30.972Z,14.99
2018-04-08T22:46:00.132Z,15.11
2018-04-08T22:48:29.609Z,15.21
2018-04-08T22:50:58.354Z,15.28
2018-04-08T22:53:27.129Z,15.37
2018-04-08T22:55:55.902Z,15.36
2018-04-08T22:58:24.493Z,15.31
2018-04-08T23:00:53.962Z,15.19
2018-04-08T23:03:22.710Z,15.14
2018-04-08T23:05:51.716Z,15.11
2018-04-08T23:08:20.282Z,15.07
2018-04-08T23:10:48.962Z,15.09
2018-04-08T23:13:18.843Z,15.09
2018-04-08T23:15:48.195Z,15.10
2018-04-08T23:18:17.628Z,15.10
2018-04-08T23:20:47.046Z,14.72
2018-04-08T23:23:15.720Z,14.30
2018-04-08T23:25:44.424Z,14.07
2018-04-08T23:28:13.180Z,14.10
2018-04-08T23:30:42.653Z,14.18
2018-04-08T23:33:11.324Z,14.28
2018-04-08T23:35:40.006Z,14.33
2018-04-08T23:38:08.615Z,14.36
2018-04-08T23:40:37.985Z,14.39
2018-04-08T23:43:06.915Z,14.42
2018-04-08T23:45:36.842Z,14.47
2018-04-08T23:48:05.485Z,14.51
2018-04-08T23:50:34.058Z,14.57
2018-04-08T23:53:02.701Z,14.65
2018-04-08T23:55:32.090Z,14.74
2018-04-08T23:58:00.766Z,14.71
